Página principal
METAR-TAF:

METAR-TAF

Aeroportos :

Aeroporto Internacional de Tashkent

Tashkent, Uzbequistão

latitude: 41-16N, longitude: 069-16E, altura: 489 m

Observação actual do tempo

O boletim foi feito há 30 minutos, às 04:30 UTC
Vento 12 kt de sul
Temperatura 26°C
Humidade 37%
Pressão 1017 hPa
Visibilidade 10 km ou mais
sem nuvens abaixo de 1500 metros e sem cumulonimbus

METAR: UTTT 230430Z 19012KT CAVOK 26/10 Q1017 R08R/CLRD70 NOSIG

Hora: 10:00 (05:00 UTC)

Previsão

O boletim foi feito há 6 horas e 0 minutos, às 23:00 UTC
Previsão válida de 23 às 00 UTC a 23 às 24 UTC
Vento 10 kt de es-nordeste
Visibilidade 10 km ou mais
Poucas nuvensa uma altura de 6000 ft, Cumulonimbus.
Nuvens dispersasa uma altura de 10000 ft
Probabilidade 40% :
Temporariamente
de 23 às 00 UTC a 23 às 08 UTC
Nuvens dispersasa uma altura de 6000 ft, Cumulonimbus.
trovoada, chuva fraca

TAF: UTTT 222300Z 2300/2324 06010KT 9999 FEW060CB SCT100 PROB40 TEMPO 2300/2308 -TSRA SCT060CB

Observações e previsões do tempo de mais de 4000 aeroportos (mensagens METAR e TAF).

As estações disponíveis são os pontos amarelos e vermelhos sobre o mapa.

Mova o rato sobre o mapa para ver o nome da estação.

Depois clique no ponto para visualizar as observações e previsões meteorológicas.

Para alterar o mapa : clique nos botões verdes com uma cruz preta para aumentar o zoom; no botão verde com uma pitada de zoom; ou nas setas verdes para mapas adjacentes.


METAR-TAF: